イカルイト の空港の天気 - METARとTAF

イカルイト空港 ( CYFB / YFB ) - カナダ ヌナブト準州イカルイト
飛行場実況気象(Metar)
観測時間01/19 10:00 EST (01/19 15:00 UTC)
風向・風速北北西 10m/s
視程10km以上
天気現象細氷 低い地吹雪
全天の4割程度の雲 雲底高度 4270m
全天の8割程度の雲 雲底高度 5180m
全天の8割程度の雲 雲底高度 6100m
気温-31℃
湿度68%
気圧1007.8hPa
METARCYFB 191500Z 34019KT 8SM IC DRSN SCT140 BKN170 BKN200 M31/M35 A2974 RMK AC3AC2CI2 SLP078
過去の天気等 Google飛行場航空写真 Wunderground天気予報

過去48時間のMETAR

飛行場予報(TAF)
発表時間: 1/19 06:38 EST (1/19 11:38 UTC)
予報対象時間: 19日7時 EST ~ 20日7時 EST
風向・風速北北西 10m/s 瞬間風速 15m/s
視程1610m
天気現象細氷 高い地吹雪
全天の8割程度の雲 雲底高度 3050m
19日7時 EST ~ 19日9時 EST に一時的に
視程4830m
天気現象細氷 高い地吹雪
全天の4割程度の雲 雲底高度 3050m
19日9時 EST から
風向・風速北北西 8m/s 瞬間風速 13m/s
視程10km以上
少しの雲 雲底高度 3050m
19日9時 EST ~ 19日11時 EST に一時的に
視程3220m
天気現象細氷 高い地吹雪
19日11時 EST から
風向・風速北北西 8m/s
視程10km以上
少しの雲 雲底高度 4570m
19日17時 EST ~ 19日19時 EST に徐々に
風向・風速北北西 5m/s
TAF CYFB 191138Z 1912/2012 34020G30KT 1SM IC BLSN BKN100
TEMPO 1912/1914 3SM IC BLSN SCT100
FM191400 34015G25KT P6SM FEW100
TEMPO 1914/1916 2SM IC BLSN
FM191600 34015KT P6SM FEW150
BECMG 1922/1924 33010KT RMK NXT FCST BY 191800Z